sensor_id;sensor_type;location;lat;lon;timestamp;temperature;humidity
14401;DHT22;7285;50.894;5.462;2023-02-23T00:01:12;8.10;99.90
14401;DHT22;7285;50.894;5.462;2023-02-23T00:03:39;8.10;99.90
14401;DHT22;7285;50.894;5.462;2023-02-23T00:06:07;8.20;99.90
14401;DHT22;7285;50.894;5.462;2023-02-23T00:08:34;8.10;99.90
14401;DHT22;7285;50.894;5.462;2023-02-23T00:11:02;8.10;99.90
14401;DHT22;7285;50.894;5.462;2023-02-23T00:13:31;8.10;99.90
14401;DHT22;7285;50.894;5.462;2023-02-23T00:16:03;8.10;99.90
14401;DHT22;7285;50.894;5.462;2023-02-23T00:18:32;8.10;99.90
14401;DHT22;7285;50.894;5.462;2023-02-23T00:21:10;8.10;99.90
14401;DHT22;7285;50.894;5.462;2023-02-23T00:23:40;8.00;99.90
14401;DHT22;7285;50.894;5.462;2023-02-23T00:26:07;8.00;99.90
14401;DHT22;7285;50.894;5.462;2023-02-23T00:28:34;8.00;99.90
14401;DHT22;7285;50.894;5.462;2023-02-23T00:31:02;8.00;99.90
14401;DHT22;7285;50.894;5.462;2023-02-23T00:33:31;8.00;99.90
14401;DHT22;7285;50.894;5.462;2023-02-23T00:36:03;8.00;99.90
14401;DHT22;7285;50.894;5.462;2023-02-23T00:38:30;8.00;99.90
14401;DHT22;7285;50.894;5.462;2023-02-23T00:41:03;8.00;99.90
14401;DHT22;7285;50.894;5.462;2023-02-23T00:43:33;7.90;99.90
14401;DHT22;7285;50.894;5.462;2023-02-23T00:46:00;8.00;99.90
14401;DHT22;7285;50.894;5.462;2023-02-23T00:48:32;7.90;99.90
14401;DHT22;7285;50.894;5.462;2023-02-23T00:50:59;8.00;99.90
14401;DHT22;7285;50.894;5.462;2023-02-23T00:53:27;8.00;99.90
14401;DHT22;7285;50.894;5.462;2023-02-23T00:55:54;8.00;99.90
14401;DHT22;7285;50.894;5.462;2023-02-23T00:58:22;8.00;99.90
14401;DHT22;7285;50.894;5.462;2023-02-23T01:00:49;8.00;99.90
14401;DHT22;7285;50.894;5.462;2023-02-23T01:03:16;8.00;99.90
14401;DHT22;7285;50.894;5.462;2023-02-23T01:05:44;8.00;99.90
14401;DHT22;7285;50.894;5.462;2023-02-23T01:08:14;8.00;99.90
14401;DHT22;7285;50.894;5.462;2023-02-23T01:10:42;8.00;99.90
14401;DHT22;7285;50.894;5.462;2023-02-23T01:13:17;8.00;99.90
14401;DHT22;7285;50.894;5.462;2023-02-23T01:15:44;8.00;99.90
14401;DHT22;7285;50.894;5.462;2023-02-23T01:18:12;8.00;99.90
14401;DHT22;7285;50.894;5.462;2023-02-23T01:20:39;8.00;99.90
14401;DHT22;7285;50.894;5.462;2023-02-23T01:23:09;8.00;99.90
14401;DHT22;7285;50.894;5.462;2023-02-23T01:25:37;8.00;99.90
14401;DHT22;7285;50.894;5.462;2023-02-23T01:28:04;8.10;99.90
14401;DHT22;7285;50.894;5.462;2023-02-23T01:30:31;8.00;99.90
14401;DHT22;7285;50.894;5.462;2023-02-23T01:32:59;8.10;99.90
14401;DHT22;7285;50.894;5.462;2023-02-23T01:35:27;8.10;99.90
14401;DHT22;7285;50.894;5.462;2023-02-23T01:37:54;8.10;99.90
14401;DHT22;7285;50.894;5.462;2023-02-23T01:40:24;8.00;99.90
14401;DHT22;7285;50.894;5.462;2023-02-23T01:42:55;8.10;99.90
14401;DHT22;7285;50.894;5.462;2023-02-23T01:45:29;8.10;99.90
14401;DHT22;7285;50.894;5.462;2023-02-23T01:47:59;8.00;99.90
14401;DHT22;7285;50.894;5.462;2023-02-23T01:50:29;8.00;99.90
14401;DHT22;7285;50.894;5.462;2023-02-23T01:52:58;8.00;99.90
14401;DHT22;7285;50.894;5.462;2023-02-23T01:55:28;8.00;99.90
14401;DHT22;7285;50.894;5.462;2023-02-23T01:58:02;8.10;99.90
14401;DHT22;7285;50.894;5.462;2023-02-23T02:00:30;8.00;99.90
14401;DHT22;7285;50.894;5.462;2023-02-23T02:03:05;8.10;99.90
14401;DHT22;7285;50.894;5.462;2023-02-23T02:05:36;8.10;99.90
14401;DHT22;7285;50.894;5.462;2023-02-23T02:08:07;8.10;99.90
14401;DHT22;7285;50.894;5.462;2023-02-23T02:10:36;8.10;99.90
14401;DHT22;7285;50.894;5.462;2023-02-23T02:13:15;8.10;99.90
14401;DHT22;7285;50.894;5.462;2023-02-23T02:16:20;8.10;99.90
14401;DHT22;7285;50.894;5.462;2023-02-23T02:22:15;8.00;99.90
14401;DHT22;7285;50.894;5.462;2023-02-23T02:25:09;8.00;99.90
14401;DHT22;7285;50.894;5.462;2023-02-23T02:28:07;8.10;99.90
14401;DHT22;7285;50.894;5.462;2023-02-23T02:30:59;8.00;99.90
14401;DHT22;7285;50.894;5.462;2023-02-23T02:33:47;8.10;99.90
14401;DHT22;7285;50.894;5.462;2023-02-23T02:39:27;8.10;99.90
14401;DHT22;7285;50.894;5.462;2023-02-23T02:42:06;8.10;99.90
14401;DHT22;7285;50.894;5.462;2023-02-23T02:44:39;8.10;99.90
14401;DHT22;7285;50.894;5.462;2023-02-23T02:47:14;8.00;99.90
14401;DHT22;7285;50.894;5.462;2023-02-23T02:49:47;8.10;99.90
14401;DHT22;7285;50.894;5.462;2023-02-23T02:52:18;8.00;99.90
14401;DHT22;7285;50.894;5.462;2023-02-23T02:54:50;8.10;99.90
14401;DHT22;7285;50.894;5.462;2023-02-23T02:57:19;8.10;99.90
14401;DHT22;7285;50.894;5.462;2023-02-23T02:59:49;8.00;99.90
14401;DHT22;7285;50.894;5.462;2023-02-23T03:02:36;8.00;99.90
14401;DHT22;7285;50.894;5.462;2023-02-23T03:05:23;8.00;99.90
14401;DHT22;7285;50.894;5.462;2023-02-23T03:08:12;8.00;99.90
14401;DHT22;7285;50.894;5.462;2023-02-23T03:11:04;8.10;99.90
14401;DHT22;7285;50.894;5.462;2023-02-23T03:14:00;8.00;99.90
14401;DHT22;7285;50.894;5.462;2023-02-23T03:16:51;8.00;99.90
14401;DHT22;7285;50.894;5.462;2023-02-23T03:19:41;8.00;99.90
14401;DHT22;7285;50.894;5.462;2023-02-23T03:22:33;8.00;99.90
14401;DHT22;7285;50.894;5.462;2023-02-23T03:25:23;8.00;99.90
14401;DHT22;7285;50.894;5.462;2023-02-23T03:28:13;8.10;99.90
14401;DHT22;7285;50.894;5.462;2023-02-23T03:31:06;8.10;99.90
14401;DHT22;7285;50.894;5.462;2023-02-23T03:33:58;8.00;99.90
14401;DHT22;7285;50.894;5.462;2023-02-23T03:36:48;8.10;99.90
14401;DHT22;7285;50.894;5.462;2023-02-23T03:39:37;8.00;99.90
14401;DHT22;7285;50.894;5.462;2023-02-23T03:42:29;8.10;99.90
14401;DHT22;7285;50.894;5.462;2023-02-23T03:45:18;8.00;99.90
14401;DHT22;7285;50.894;5.462;2023-02-23T03:48:07;8.00;99.90
14401;DHT22;7285;50.894;5.462;2023-02-23T03:50:53;8.00;99.90
14401;DHT22;7285;50.894;5.462;2023-02-23T03:53:43;8.00;99.90
14401;DHT22;7285;50.894;5.462;2023-02-23T03:56:32;8.00;99.90
14401;DHT22;7285;50.894;5.462;2023-02-23T03:59:17;8.00;99.90
14401;DHT22;7285;50.894;5.462;2023-02-23T04:02:05;8.00;99.90
14401;DHT22;7285;50.894;5.462;2023-02-23T04:04:53;8.10;99.90
14401;DHT22;7285;50.894;5.462;2023-02-23T04:07:40;8.10;99.90
14401;DHT22;7285;50.894;5.462;2023-02-23T04:10:25;8.00;99.90
14401;DHT22;7285;50.894;5.462;2023-02-23T04:13:15;8.00;99.90
14401;DHT22;7285;50.894;5.462;2023-02-23T04:15:48;8.00;99.90
14401;DHT22;7285;50.894;5.462;2023-02-23T04:18:19;8.00;99.90
14401;DHT22;7285;50.894;5.462;2023-02-23T04:20:47;8.10;99.90
14401;DHT22;7285;50.894;5.462;2023-02-23T04:23:14;8.10;99.90
14401;DHT22;7285;50.894;5.462;2023-02-23T04:25:42;8.10;99.90
14401;DHT22;7285;50.894;5.462;2023-02-23T04:28:09;8.00;99.90
14401;DHT22;7285;50.894;5.462;2023-02-23T04:30:36;8.00;99.90
14401;DHT22;7285;50.894;5.462;2023-02-23T04:33:03;8.00;99.90
14401;DHT22;7285;50.894;5.462;2023-02-23T04:35:31;8.10;99.90
14401;DHT22;7285;50.894;5.462;2023-02-23T04:37:58;8.00;99.90
14401;DHT22;7285;50.894;5.462;2023-02-23T04:40:26;8.10;99.90
14401;DHT22;7285;50.894;5.462;2023-02-23T04:42:53;8.10;99.90
14401;DHT22;7285;50.894;5.462;2023-02-23T04:45:20;8.00;99.90
14401;DHT22;7285;50.894;5.462;2023-02-23T04:47:48;8.10;99.90
14401;DHT22;7285;50.894;5.462;2023-02-23T04:50:16;8.10;99.90
14401;DHT22;7285;50.894;5.462;2023-02-23T04:52:44;8.10;99.90
14401;DHT22;7285;50.894;5.462;2023-02-23T04:55:15;8.10;99.90
14401;DHT22;7285;50.894;5.462;2023-02-23T04:57:42;8.00;99.90
14401;DHT22;7285;50.894;5.462;2023-02-23T05:00:11;8.10;99.90
14401;DHT22;7285;50.894;5.462;2023-02-23T05:02:38;8.10;99.90
14401;DHT22;7285;50.894;5.462;2023-02-23T05:05:06;8.10;99.90
14401;DHT22;7285;50.894;5.462;2023-02-23T05:07:33;8.10;99.90
14401;DHT22;7285;50.894;5.462;2023-02-23T05:10:02;8.10;99.90
14401;DHT22;7285;50.894;5.462;2023-02-23T05:12:29;8.00;99.90
14401;DHT22;7285;50.894;5.462;2023-02-23T05:14:57;8.10;99.90
14401;DHT22;7285;50.894;5.462;2023-02-23T05:17:24;8.10;99.90
14401;DHT22;7285;50.894;5.462;2023-02-23T05:19:51;8.10;99.90
14401;DHT22;7285;50.894;5.462;2023-02-23T05:22:18;8.10;99.90
14401;DHT22;7285;50.894;5.462;2023-02-23T05:24:45;8.10;99.90
14401;DHT22;7285;50.894;5.462;2023-02-23T05:27:14;8.10;99.90
14401;DHT22;7285;50.894;5.462;2023-02-23T05:29:42;8.10;99.90
14401;DHT22;7285;50.894;5.462;2023-02-23T05:32:09;8.00;99.90
14401;DHT22;7285;50.894;5.462;2023-02-23T05:34:36;8.10;99.90
14401;DHT22;7285;50.894;5.462;2023-02-23T05:37:04;8.10;99.90
14401;DHT22;7285;50.894;5.462;2023-02-23T05:39:31;8.10;99.90
14401;DHT22;7285;50.894;5.462;2023-02-23T05:41:58;8.00;99.90
14401;DHT22;7285;50.894;5.462;2023-02-23T05:44:27;8.10;99.90
14401;DHT22;7285;50.894;5.462;2023-02-23T05:46:54;8.00;99.90
14401;DHT22;7285;50.894;5.462;2023-02-23T05:49:21;8.10;99.90
14401;DHT22;7285;50.894;5.462;2023-02-23T05:51:48;8.00;99.90
14401;DHT22;7285;50.894;5.462;2023-02-23T05:54:16;8.00;99.90
14401;DHT22;7285;50.894;5.462;2023-02-23T05:56:43;8.10;99.90
14401;DHT22;7285;50.894;5.462;2023-02-23T05:59:10;8.10;99.90
14401;DHT22;7285;50.894;5.462;2023-02-23T06:01:39;8.10;99.90
14401;DHT22;7285;50.894;5.462;2023-02-23T06:04:06;8.10;99.90
14401;DHT22;7285;50.894;5.462;2023-02-23T06:06:33;8.10;99.90
14401;DHT22;7285;50.894;5.462;2023-02-23T06:09:00;8.10;99.90
14401;DHT22;7285;50.894;5.462;2023-02-23T06:11:28;8.10;99.90
14401;DHT22;7285;50.894;5.462;2023-02-23T06:13:57;8.10;99.90
14401;DHT22;7285;50.894;5.462;2023-02-23T06:16:25;8.00;99.90
14401;DHT22;7285;50.894;5.462;2023-02-23T06:18:53;8.00;99.90
14401;DHT22;7285;50.894;5.462;2023-02-23T06:21:20;8.00;99.90
14401;DHT22;7285;50.894;5.462;2023-02-23T06:23:47;8.00;99.90
14401;DHT22;7285;50.894;5.462;2023-02-23T06:26:14;8.10;99.90
14401;DHT22;7285;50.894;5.462;2023-02-23T06:28:41;8.10;99.90
14401;DHT22;7285;50.894;5.462;2023-02-23T06:31:08;8.00;99.90
14401;DHT22;7285;50.894;5.462;2023-02-23T06:33:35;8.00;99.90
14401;DHT22;7285;50.894;5.462;2023-02-23T06:36:04;8.10;99.90
14401;DHT22;7285;50.894;5.462;2023-02-23T06:38:31;8.10;99.90
14401;DHT22;7285;50.894;5.462;2023-02-23T06:40:58;8.10;99.90
14401;DHT22;7285;50.894;5.462;2023-02-23T06:43:24;8.10;99.90
14401;DHT22;7285;50.894;5.462;2023-02-23T06:45:51;8.10;99.90
14401;DHT22;7285;50.894;5.462;2023-02-23T06:48:18;8.10;99.90
14401;DHT22;7285;50.894;5.462;2023-02-23T06:50:45;8.10;99.90
14401;DHT22;7285;50.894;5.462;2023-02-23T06:53:14;8.10;99.90
14401;DHT22;7285;50.894;5.462;2023-02-23T06:55:40;8.10;99.90
14401;DHT22;7285;50.894;5.462;2023-02-23T06:58:07;8.10;99.90
14401;DHT22;7285;50.894;5.462;2023-02-23T07:00:34;8.10;99.90
14401;DHT22;7285;50.894;5.462;2023-02-23T07:03:03;8.10;99.90
14401;DHT22;7285;50.894;5.462;2023-02-23T07:05:31;8.20;99.90
14401;DHT22;7285;50.894;5.462;2023-02-23T07:07:58;8.10;99.90
14401;DHT22;7285;50.894;5.462;2023-02-23T07:10:26;8.10;99.90
14401;DHT22;7285;50.894;5.462;2023-02-23T07:12:53;8.10;99.90
14401;DHT22;7285;50.894;5.462;2023-02-23T07:15:20;8.10;99.90
14401;DHT22;7285;50.894;5.462;2023-02-23T07:17:47;8.20;99.90
14401;DHT22;7285;50.894;5.462;2023-02-23T07:20:16;8.10;99.90
14401;DHT22;7285;50.894;5.462;2023-02-23T07:22:43;8.20;99.90
14401;DHT22;7285;50.894;5.462;2023-02-23T07:25:10;8.10;99.90
14401;DHT22;7285;50.894;5.462;2023-02-23T07:27:39;8.10;99.90
14401;DHT22;7285;50.894;5.462;2023-02-23T07:30:07;8.10;99.90
14401;DHT22;7285;50.894;5.462;2023-02-23T07:32:35;8.00;99.90
14401;DHT22;7285;50.894;5.462;2023-02-23T07:35:02;8.10;99.90
14401;DHT22;7285;50.894;5.462;2023-02-23T07:37:29;8.10;99.90
14401;DHT22;7285;50.894;5.462;2023-02-23T07:39:56;8.00;99.90
14401;DHT22;7285;50.894;5.462;2023-02-23T07:42:23;8.00;99.90
14401;DHT22;7285;50.894;5.462;2023-02-23T07:44:52;7.90;99.90
14401;DHT22;7285;50.894;5.462;2023-02-23T07:47:19;8.10;99.90
14401;DHT22;7285;50.894;5.462;2023-02-23T07:49:47;8.00;99.90
14401;DHT22;7285;50.894;5.462;2023-02-23T07:52:16;8.00;99.90
14401;DHT22;7285;50.894;5.462;2023-02-23T07:54:43;8.00;99.90
14401;DHT22;7285;50.894;5.462;2023-02-23T07:57:10;8.00;99.90
14401;DHT22;7285;50.894;5.462;2023-02-23T07:59:37;8.00;99.90
14401;DHT22;7285;50.894;5.462;2023-02-23T08:02:06;8.10;99.90
14401;DHT22;7285;50.894;5.462;2023-02-23T08:04:33;8.00;99.90
14401;DHT22;7285;50.894;5.462;2023-02-23T08:07:00;8.00;99.90
14401;DHT22;7285;50.894;5.462;2023-02-23T08:09:27;8.10;99.90
14401;DHT22;7285;50.894;5.462;2023-02-23T08:11:55;8.00;99.90
14401;DHT22;7285;50.894;5.462;2023-02-23T08:14:22;8.00;99.90
14401;DHT22;7285;50.894;5.462;2023-02-23T08:16:49;8.00;99.90
14401;DHT22;7285;50.894;5.462;2023-02-23T08:19:18;8.00;99.90
14401;DHT22;7285;50.894;5.462;2023-02-23T08:21:47;8.10;99.90
14401;DHT22;7285;50.894;5.462;2023-02-23T08:24:14;8.00;99.90
14401;DHT22;7285;50.894;5.462;2023-02-23T08:26:41;8.10;99.90
14401;DHT22;7285;50.894;5.462;2023-02-23T08:29:08;8.00;99.90
14401;DHT22;7285;50.894;5.462;2023-02-23T08:31:35;8.10;99.90
14401;DHT22;7285;50.894;5.462;2023-02-23T08:34:02;8.00;99.90
14401;DHT22;7285;50.894;5.462;2023-02-23T08:36:31;8.10;99.90
14401;DHT22;7285;50.894;5.462;2023-02-23T08:38:58;8.10;99.90
14401;DHT22;7285;50.894;5.462;2023-02-23T08:41:26;8.00;99.90
14401;DHT22;7285;50.894;5.462;2023-02-23T08:43:53;8.10;99.90
14401;DHT22;7285;50.894;5.462;2023-02-23T08:46:20;8.00;99.90
14401;DHT22;7285;50.894;5.462;2023-02-23T08:48:47;8.00;99.90
14401;DHT22;7285;50.894;5.462;2023-02-23T08:51:14;8.00;99.90
14401;DHT22;7285;50.894;5.462;2023-02-23T08:53:43;8.00;99.90
14401;DHT22;7285;50.894;5.462;2023-02-23T08:56:10;7.90;99.90
14401;DHT22;7285;50.894;5.462;2023-02-23T08:58:40;8.00;99.90
14401;DHT22;7285;50.894;5.462;2023-02-23T09:01:07;8.00;99.90
14401;DHT22;7285;50.894;5.462;2023-02-23T09:03:41;7.90;99.90
14401;DHT22;7285;50.894;5.462;2023-02-23T09:06:09;8.00;99.90
14401;DHT22;7285;50.894;5.462;2023-02-23T09:08:36;8.00;99.90
14401;DHT22;7285;50.894;5.462;2023-02-23T09:11:05;7.90;99.90
14401;DHT22;7285;50.894;5.462;2023-02-23T09:13:32;7.90;99.90
14401;DHT22;7285;50.894;5.462;2023-02-23T09:15:59;8.00;99.90
14401;DHT22;7285;50.894;5.462;2023-02-23T09:18:28;8.00;99.90
14401;DHT22;7285;50.894;5.462;2023-02-23T09:20:57;8.00;99.90
14401;DHT22;7285;50.894;5.462;2023-02-23T09:23:27;8.10;99.90
14401;DHT22;7285;50.894;5.462;2023-02-23T09:25:54;8.10;99.90
14401;DHT22;7285;50.894;5.462;2023-02-23T09:28:22;8.20;99.90
14401;DHT22;7285;50.894;5.462;2023-02-23T09:30:50;8.20;99.90
14401;DHT22;7285;50.894;5.462;2023-02-23T09:33:17;8.20;99.90
14401;DHT22;7285;50.894;5.462;2023-02-23T09:35:43;8.20;99.90
14401;DHT22;7285;50.894;5.462;2023-02-23T09:38:10;8.30;99.90
14401;DHT22;7285;50.894;5.462;2023-02-23T09:40:45;8.30;99.90
14401;DHT22;7285;50.894;5.462;2023-02-23T09:43:14;8.40;99.90
14401;DHT22;7285;50.894;5.462;2023-02-23T09:45:46;8.60;99.90
14401;DHT22;7285;50.894;5.462;2023-02-23T09:48:17;8.60;99.90
14401;DHT22;7285;50.894;5.462;2023-02-23T09:50:51;8.60;99.90
14401;DHT22;7285;50.894;5.462;2023-02-23T09:53:29;8.60;99.90
14401;DHT22;7285;50.894;5.462;2023-02-23T09:55:58;8.80;99.90
14401;DHT22;7285;50.894;5.462;2023-02-23T09:58:26;8.90;99.90
14401;DHT22;7285;50.894;5.462;2023-02-23T10:01:15;9.00;99.90
14401;DHT22;7285;50.894;5.462;2023-02-23T10:03:49;9.10;99.90
14401;DHT22;7285;50.894;5.462;2023-02-23T10:06:19;9.00;99.90
14401;DHT22;7285;50.894;5.462;2023-02-23T10:08:54;9.10;99.90
14401;DHT22;7285;50.894;5.462;2023-02-23T10:11:27;9.00;99.90
14401;DHT22;7285;50.894;5.462;2023-02-23T10:14:06;9.10;99.90
14401;DHT22;7285;50.894;5.462;2023-02-23T10:16:44;9.20;99.90
14401;DHT22;7285;50.894;5.462;2023-02-23T10:19:20;9.20;99.90
14401;DHT22;7285;50.894;5.462;2023-02-23T10:21:53;9.30;99.90
14401;DHT22;7285;50.894;5.462;2023-02-23T10:24:24;9.30;99.90
14401;DHT22;7285;50.894;5.462;2023-02-23T10:26:56;9.30;99.90
14401;DHT22;7285;50.894;5.462;2023-02-23T10:29:27;9.30;99.90
14401;DHT22;7285;50.894;5.462;2023-02-23T10:32:01;9.30;99.90
14401;DHT22;7285;50.894;5.462;2023-02-23T10:34:29;9.40;99.90
14401;DHT22;7285;50.894;5.462;2023-02-23T10:37:01;9.40;99.90
14401;DHT22;7285;50.894;5.462;2023-02-23T10:39:28;9.40;99.90
14401;DHT22;7285;50.894;5.462;2023-02-23T10:41:58;9.40;99.90
14401;DHT22;7285;50.894;5.462;2023-02-23T10:44:27;9.30;99.90
14401;DHT22;7285;50.894;5.462;2023-02-23T10:46:56;9.10;99.90
14401;DHT22;7285;50.894;5.462;2023-02-23T10:49:29;9.10;99.90
14401;DHT22;7285;50.894;5.462;2023-02-23T10:51:58;9.20;99.90
14401;DHT22;7285;50.894;5.462;2023-02-23T10:54:38;9.20;99.90
14401;DHT22;7285;50.894;5.462;2023-02-23T10:57:10;9.40;99.90
14401;DHT22;7285;50.894;5.462;2023-02-23T11:00:06;9.40;99.90
14401;DHT22;7285;50.894;5.462;2023-02-23T11:02:34;9.40;82.90
14401;DHT22;7285;50.894;5.462;2023-02-23T11:05:04;9.50;14.80
14401;DHT22;7285;50.894;5.462;2023-02-23T11:07:32;9.60;10.90
14401;DHT22;7285;50.894;5.462;2023-02-23T11:10:22;9.50;1.00
14401;DHT22;7285;50.894;5.462;2023-02-23T11:12:50;9.60;1.00
14401;DHT22;7285;50.894;5.462;2023-02-23T11:15:25;9.70;1.00
14401;DHT22;7285;50.894;5.462;2023-02-23T11:17:55;9.70;1.00
14401;DHT22;7285;50.894;5.462;2023-02-23T11:20:29;9.80;1.00
14401;DHT22;7285;50.894;5.462;2023-02-23T11:22:56;10.00;1.00
14401;DHT22;7285;50.894;5.462;2023-02-23T11:25:26;10.20;1.00
14401;DHT22;7285;50.894;5.462;2023-02-23T11:27:55;10.50;1.00
14401;DHT22;7285;50.894;5.462;2023-02-23T11:30:24;10.60;99.90
14401;DHT22;7285;50.894;5.462;2023-02-23T11:32:56;10.60;1.00
14401;DHT22;7285;50.894;5.462;2023-02-23T11:35:31;10.70;1.00
14401;DHT22;7285;50.894;5.462;2023-02-23T11:37:58;10.80;1.00
14401;DHT22;7285;50.894;5.462;2023-02-23T11:40:26;10.80;1.00
14401;DHT22;7285;50.894;5.462;2023-02-23T11:42:55;10.70;32.30
14401;DHT22;7285;50.894;5.462;2023-02-23T11:45:24;10.80;99.90
14401;DHT22;7285;50.894;5.462;2023-02-23T11:47:54;10.90;1.00
14401;DHT22;7285;50.894;5.462;2023-02-23T11:50:25;10.70;1.00
14401;DHT22;7285;50.894;5.462;2023-02-23T11:52:57;10.50;1.00
14401;DHT22;7285;50.894;5.462;2023-02-23T11:55:26;10.40;1.00
14401;DHT22;7285;50.894;5.462;2023-02-23T11:58:10;10.30;1.00
14401;DHT22;7285;50.894;5.462;2023-02-23T12:00:54;10.40;1.00
14401;DHT22;7285;50.894;5.462;2023-02-23T12:03:23;10.50;1.00
14401;DHT22;7285;50.894;5.462;2023-02-23T12:05:53;10.60;1.00
14401;DHT22;7285;50.894;5.462;2023-02-23T12:08:32;10.80;99.90
14401;DHT22;7285;50.894;5.462;2023-02-23T12:11:03;10.90;99.90
14401;DHT22;7285;50.894;5.462;2023-02-23T12:13:37;11.00;99.90
14401;DHT22;7285;50.894;5.462;2023-02-23T12:16:10;10.90;1.00
14401;DHT22;7285;50.894;5.462;2023-02-23T12:18:43;10.80;99.90
14401;DHT22;7285;50.894;5.462;2023-02-23T12:21:20;10.70;85.10
14401;DHT22;7285;50.894;5.462;2023-02-23T12:24:13;10.60;99.90
14401;DHT22;7285;50.894;5.462;2023-02-23T12:26:47;10.50;1.00
14401;DHT22;7285;50.894;5.462;2023-02-23T12:29:20;10.30;1.00
14401;DHT22;7285;50.894;5.462;2023-02-23T12:31:51;10.20;1.00
14401;DHT22;7285;50.894;5.462;2023-02-23T12:34:23;10.20;1.00
14401;DHT22;7285;50.894;5.462;2023-02-23T12:36:58;10.20;1.00
14401;DHT22;7285;50.894;5.462;2023-02-23T12:39:35;10.10;99.90
14401;DHT22;7285;50.894;5.462;2023-02-23T12:42:09;10.30;1.00
14401;DHT22;7285;50.894;5.462;2023-02-23T12:44:41;10.50;1.00
14401;DHT22;7285;50.894;5.462;2023-02-23T12:47:19;10.50;1.00
14401;DHT22;7285;50.894;5.462;2023-02-23T12:49:51;10.50;1.00
14401;DHT22;7285;50.894;5.462;2023-02-23T12:52:24;10.50;99.90
14401;DHT22;7285;50.894;5.462;2023-02-23T12:54:54;10.40;1.00
14401;DHT22;7285;50.894;5.462;2023-02-23T12:57:28;10.40;1.00
14401;DHT22;7285;50.894;5.462;2023-02-23T13:03:06;10.20;99.90
14401;DHT22;7285;50.894;5.462;2023-02-23T13:05:43;10.20;1.00
14401;DHT22;7285;50.894;5.462;2023-02-23T13:08:20;10.20;99.90
14401;DHT22;7285;50.894;5.462;2023-02-23T13:10:57;10.10;99.90
14401;DHT22;7285;50.894;5.462;2023-02-23T13:13:32;10.10;1.00
14401;DHT22;7285;50.894;5.462;2023-02-23T13:16:08;10.10;1.00
14401;DHT22;7285;50.894;5.462;2023-02-23T13:18:41;10.10;1.00
14401;DHT22;7285;50.894;5.462;2023-02-23T13:21:16;10.10;1.00
14401;DHT22;7285;50.894;5.462;2023-02-23T13:23:53;10.10;99.90
14401;DHT22;7285;50.894;5.462;2023-02-23T13:26:29;10.20;93.90
14401;DHT22;7285;50.894;5.462;2023-02-23T13:29:01;10.20;1.00
14401;DHT22;7285;50.894;5.462;2023-02-23T13:31:33;10.20;1.00
14401;DHT22;7285;50.894;5.462;2023-02-23T13:34:02;10.20;1.00
14401;DHT22;7285;50.894;5.462;2023-02-23T13:36:31;10.20;1.00
14401;DHT22;7285;50.894;5.462;2023-02-23T13:39:13;10.20;1.00
14401;DHT22;7285;50.894;5.462;2023-02-23T13:41:50;10.30;99.90
14401;DHT22;7285;50.894;5.462;2023-02-23T13:44:27;10.40;1.00
14401;DHT22;7285;50.894;5.462;2023-02-23T13:47:02;10.50;1.00
14401;DHT22;7285;50.894;5.462;2023-02-23T13:49:36;10.50;99.90
14401;DHT22;7285;50.894;5.462;2023-02-23T13:52:18;10.50;99.90
14401;DHT22;7285;50.894;5.462;2023-02-23T13:54:53;10.40;99.90
14401;DHT22;7285;50.894;5.462;2023-02-23T13:57:23;10.30;99.90
14401;DHT22;7285;50.894;5.462;2023-02-23T13:59:51;10.30;99.90
14401;DHT22;7285;50.894;5.462;2023-02-23T14:02:30;10.20;99.90
14401;DHT22;7285;50.894;5.462;2023-02-23T14:05:02;10.20;99.90
14401;DHT22;7285;50.894;5.462;2023-02-23T14:07:31;10.20;1.00
14401;DHT22;7285;50.894;5.462;2023-02-23T14:10:05;10.10;1.00
14401;DHT22;7285;50.894;5.462;2023-02-23T14:12:37;10.00;1.00
14401;DHT22;7285;50.894;5.462;2023-02-23T14:15:36;10.00;99.90
14401;DHT22;7285;50.894;5.462;2023-02-23T14:18:28;9.90;1.00
14401;DHT22;7285;50.894;5.462;2023-02-23T14:20:56;9.90;1.00
14401;DHT22;7285;50.894;5.462;2023-02-23T14:23:33;9.80;1.00
14401;DHT22;7285;50.894;5.462;2023-02-23T14:29:26;9.80;1.00
14401;DHT22;7285;50.894;5.462;2023-02-23T14:32:01;9.80;1.00
14401;DHT22;7285;50.894;5.462;2023-02-23T14:34:49;9.70;1.00
14401;DHT22;7285;50.894;5.462;2023-02-23T14:37:24;9.70;99.90
14401;DHT22;7285;50.894;5.462;2023-02-23T14:39:54;9.60;1.00
14401;DHT22;7285;50.894;5.462;2023-02-23T14:42:24;9.60;1.00
14401;DHT22;7285;50.894;5.462;2023-02-23T14:44:53;9.60;1.00
14401;DHT22;7285;50.894;5.462;2023-02-23T14:47:21;9.60;99.90
14401;DHT22;7285;50.894;5.462;2023-02-23T14:49:52;9.50;99.90
14401;DHT22;7285;50.894;5.462;2023-02-23T14:52:22;9.50;54.70
14401;DHT22;7285;50.894;5.462;2023-02-23T14:54:50;9.50;1.00
14401;DHT22;7285;50.894;5.462;2023-02-23T14:57:20;9.50;1.00
14401;DHT22;7285;50.894;5.462;2023-02-23T14:59:55;9.40;1.00
14401;DHT22;7285;50.894;5.462;2023-02-23T15:02:24;9.50;42.20
14401;DHT22;7285;50.894;5.462;2023-02-23T15:04:51;9.50;99.90
14401;DHT22;7285;50.894;5.462;2023-02-23T15:07:21;9.50;97.50
14401;DHT22;7285;50.894;5.462;2023-02-23T15:09:51;9.50;1.00
14401;DHT22;7285;50.894;5.462;2023-02-23T15:12:21;9.50;99.90
14401;DHT22;7285;50.894;5.462;2023-02-23T15:14:54;9.50;1.00
14401;DHT22;7285;50.894;5.462;2023-02-23T15:17:24;9.50;9.40
14401;DHT22;7285;50.894;5.462;2023-02-23T15:19:54;9.40;99.90
14401;DHT22;7285;50.894;5.462;2023-02-23T15:22:25;9.50;1.00
14401;DHT22;7285;50.894;5.462;2023-02-23T15:24:56;9.40;99.90
14401;DHT22;7285;50.894;5.462;2023-02-23T15:27:29;9.40;99.90
14401;DHT22;7285;50.894;5.462;2023-02-23T15:29:57;9.40;99.90
14401;DHT22;7285;50.894;5.462;2023-02-23T15:32:25;9.40;1.00
14401;DHT22;7285;50.894;5.462;2023-02-23T15:34:52;9.40;1.00
14401;DHT22;7285;50.894;5.462;2023-02-23T15:37:27;9.40;38.00
14401;DHT22;7285;50.894;5.462;2023-02-23T15:39:58;9.30;1.00
14401;DHT22;7285;50.894;5.462;2023-02-23T15:42:31;9.30;1.00
14401;DHT22;7285;50.894;5.462;2023-02-23T15:45:03;9.30;1.00
14401;DHT22;7285;50.894;5.462;2023-02-23T15:47:32;9.30;1.00
14401;DHT22;7285;50.894;5.462;2023-02-23T15:50:06;9.30;72.50
14401;DHT22;7285;50.894;5.462;2023-02-23T15:52:42;9.30;1.00
14401;DHT22;7285;50.894;5.462;2023-02-23T15:55:13;9.30;1.00
14401;DHT22;7285;50.894;5.462;2023-02-23T15:57:45;9.30;1.00
14401;DHT22;7285;50.894;5.462;2023-02-23T16:00:18;9.20;1.00
14401;DHT22;7285;50.894;5.462;2023-02-23T16:02:48;9.20;1.00
14401;DHT22;7285;50.894;5.462;2023-02-23T16:05:20;9.20;1.00
14401;DHT22;7285;50.894;5.462;2023-02-23T16:07:47;9.20;1.00
14401;DHT22;7285;50.894;5.462;2023-02-23T16:10:22;9.20;99.90
14401;DHT22;7285;50.894;5.462;2023-02-23T16:12:51;9.20;99.90
14401;DHT22;7285;50.894;5.462;2023-02-23T16:15:25;9.20;99.90
14401;DHT22;7285;50.894;5.462;2023-02-23T16:17:54;9.20;1.00
14401;DHT22;7285;50.894;5.462;2023-02-23T16:20:28;9.30;1.00
14401;DHT22;7285;50.894;5.462;2023-02-23T16:23:00;9.30;12.20
14401;DHT22;7285;50.894;5.462;2023-02-23T16:25:28;9.30;1.00
14401;DHT22;7285;50.894;5.462;2023-02-23T16:28:08;9.30;1.00
14401;DHT22;7285;50.894;5.462;2023-02-23T16:30:41;9.30;1.00
14401;DHT22;7285;50.894;5.462;2023-02-23T16:33:15;9.30;99.90
14401;DHT22;7285;50.894;5.462;2023-02-23T16:35:51;9.20;1.00
14401;DHT22;7285;50.894;5.462;2023-02-23T16:38:23;9.20;1.00
14401;DHT22;7285;50.894;5.462;2023-02-23T16:40:51;9.20;1.00
14401;DHT22;7285;50.894;5.462;2023-02-23T16:43:18;9.20;1.00
14401;DHT22;7285;50.894;5.462;2023-02-23T16:45:47;9.10;99.90